Time;durP1;ratioP1;P1;durP2;ratioP2;P2;SDS_P1;SDS_P2;PMS_P1;PMS_P2;Temp;Humidity;BMP_temperature;BMP_pressure;BME280_temperature;BME280_humidity;BME280_pressure;Samples;Min_cycle;Max_cycle;Signal;HPM_P1;HPM_P2
2022/11/22 00:02:03;;;;;;;14.88;4.03;;;8.90;81.60;;;;;;5035045;28;20041;-65
2022/11/22 00:04:29;;;;;;;10.55;4.05;;;8.90;81.60;;;;;;5035056;28;20126;-65
2022/11/22 00:06:54;;;;;;;9.18;3.38;;;8.90;81.60;;;;;;5045643;28;20036;-65
2022/11/22 00:09:20;;;;;;;10.38;3.70;;;8.90;81.60;;;;;;5033053;28;20021;-65
2022/11/22 00:11:45;;;;;;;8.82;3.13;;;8.90;81.60;;;;;;5034267;28;20033;-65
2022/11/22 00:14:11;;;;;;;10.45;3.22;;;8.90;81.70;;;;;;5034214;28;20148;-65
2022/11/22 00:16:37;;;;;;;8.60;3.70;;;8.90;81.60;;;;;;5035582;28;20021;-65
2022/11/22 00:19:03;;;;;;;10.68;3.03;;;8.90;81.60;;;;;;5033584;28;20072;-65
2022/11/22 00:21:29;;;;;;;8.10;3.95;;;8.90;81.70;;;;;;5033719;28;20036;-65
2022/11/22 00:23:56;;;;;;;11.68;4.05;;;8.90;81.70;;;;;;5035756;28;20475;-65
2022/11/22 00:26:25;;;;;;;10.45;3.70;;;8.90;81.70;;;;;;5034408;28;20026;-65
2022/11/22 00:28:51;;;;;;;9.15;3.72;;;8.90;81.70;;;;;;5034452;28;20037;-65
2022/11/22 00:31:16;;;;;;;9.93;4.35;;;8.90;81.70;;;;;;5023061;28;20155;-65
2022/11/22 00:33:42;;;;;;;7.55;3.80;;;8.90;81.70;;;;;;5049153;28;20029;-64
2022/11/22 00:36:08;;;;;;;12.45;3.92;;;8.90;81.80;;;;;;5034705;28;20037;-64
2022/11/22 00:38:33;;;;;;;12.48;4.32;;;8.90;81.80;;;;;;5033341;28;20113;-64
2022/11/22 00:40:59;;;;;;;11.23;4.32;;;8.90;81.80;;;;;;5034938;28;20116;-64
2022/11/22 00:43:25;;;;;;;11.23;3.97;;;8.90;81.90;;;;;;5016840;28;20025;-64
2022/11/22 00:45:50;;;;;;;9.25;4.07;;;8.90;81.80;;;;;;5033870;28;20021;-64
2022/11/22 00:48:16;;;;;;;11.80;4.93;;;8.90;81.80;;;;;;5033646;28;20215;-64
2022/11/22 00:50:41;;;;;;;6.97;3.72;;;9.00;81.90;;;;;;5033918;28;20035;-65
2022/11/22 00:53:07;;;;;;;10.20;4.65;;;9.00;81.80;;;;;;5033690;28;20037;-65
2022/11/22 00:55:33;;;;;;;12.07;4.22;;;9.00;81.80;;;;;;5034088;28;20045;-65
2022/11/22 00:57:58;;;;;;;11.05;4.65;;;9.00;81.90;;;;;;5034870;28;20060;-65
2022/11/22 01:00:24;;;;;;;10.07;3.85;;;9.00;81.80;;;;;;5034014;28;20516;-65
2022/11/22 01:02:50;;;;;;;8.57;4.43;;;9.00;81.80;;;;;;5034167;28;20028;-65
2022/11/22 01:05:19;;;;;;;9.57;4.35;;;9.00;81.80;;;;;;5032580;28;20029;-65
2022/11/22 01:07:44;;;;;;;8.70;4.05;;;9.00;81.80;;;;;;5033181;28;20044;-65
2022/11/22 01:10:10;;;;;;;11.50;3.45;;;9.00;81.70;;;;;;5034459;28;20060;-65
2022/11/22 01:12:36;;;;;;;10.20;4.28;;;9.00;81.80;;;;;;5032844;28;20473;-65
2022/11/22 01:15:02;;;;;;;10.68;4.78;;;9.00;81.90;;;;;;5046638;28;20026;-65
2022/11/22 01:17:27;;;;;;;10.93;4.15;;;9.00;81.90;;;;;;5031999;28;20030;-65
2022/11/22 01:19:53;;;;;;;9.40;3.80;;;9.00;81.90;;;;;;5032837;28;20124;-65
2022/11/22 01:22:19;;;;;;;12.18;4.65;;;9.00;81.90;;;;;;5032033;28;20030;-65
2022/11/22 01:24:45;;;;;;;9.82;4.25;;;9.00;82.00;;;;;;5033024;28;20025;-65
2022/11/22 01:27:10;;;;;;;10.00;4.10;;;9.00;82.00;;;;;;5034143;28;20021;-65
2022/11/22 01:29:36;;;;;;;11.10;4.32;;;9.00;82.00;;;;;;5032717;28;20030;-65
2022/11/22 01:32:02;;;;;;;10.82;4.70;;;9.00;82.00;;;;;;5043388;28;20028;-65
2022/11/22 01:34:27;;;;;;;12.13;4.70;;;9.00;82.10;;;;;;5034149;28;20053;-65
2022/11/22 01:36:53;;;;;;;10.00;4.38;;;9.00;82.10;;;;;;5033528;28;20399;-65
2022/11/22 01:39:18;;;;;;;10.05;4.10;;;9.00;82.10;;;;;;5049307;28;20044;-65
2022/11/22 01:41:44;;;;;;;10.60;3.85;;;9.00;82.10;;;;;;5033836;28;20141;-65
2022/11/22 01:44:21;;;;;;;9.25;4.30;;;9.00;82.10;;;;;;5033228;28;20520;-65
2022/11/22 01:46:50;;;;;;;10.07;4.50;;;9.00;82.10;;;;;;5033131;28;20025;-65
2022/11/22 01:49:30;;;;;;;11.55;4.57;;;9.00;82.20;;;;;;5032370;28;20057;-65
2022/11/22 01:52:01;;;;;;;9.75;4.30;;;9.00;82.20;;;;;;5033649;28;20116;-65
2022/11/22 01:54:32;;;;;;;13.32;3.70;;;9.00;82.30;;;;;;5033428;28;20028;-65
2022/11/22 01:57:00;;;;;;;9.88;4.40;;;9.00;82.30;;;;;;5033327;28;20037;-65
2022/11/22 01:59:29;;;;;;;10.60;3.83;;;9.00;82.30;;;;;;5029794;28;20120;-65
2022/11/22 02:01:55;;;;;;;10.02;4.20;;;9.00;82.30;;;;;;5031936;28;20108;-65
2022/11/22 02:04:27;;;;;;;11.17;4.43;;;9.00;82.30;;;;;;5031826;28;20021;-65
2022/11/22 02:07:02;;;;;;;12.15;3.92;;;9.00;82.30;;;;;;5033589;28;20113;-67
2022/11/22 02:09:29;;;;;;;8.80;3.85;;;9.00;82.40;;;;;;5032534;28;20029;-65
2022/11/22 02:11:59;;;;;;;9.45;4.30;;;9.00;82.40;;;;;;5032944;28;20041;-65
2022/11/22 02:14:26;;;;;;;8.73;4.25;;;9.00;82.40;;;;;;5033291;28;20029;-66
2022/11/22 02:16:52;;;;;;;9.38;3.80;;;9.00;82.40;;;;;;5032564;28;20084;-65
2022/11/22 02:19:26;;;;;;;10.77;4.22;;;9.00;82.40;;;;;;5032030;28;20080;-65
2022/11/22 02:21:57;;;;;;;9.55;4.18;;;8.90;82.40;;;;;;5033656;28;20033;-65
2022/11/22 02:24:30;;;;;;;9.90;4.00;;;9.00;82.40;;;;;;5033699;28;20038;-65
2022/11/22 02:26:57;;;;;;;9.43;3.90;;;8.90;82.40;;;;;;5033694;28;20031;-65
2022/11/22 02:29:23;;;;;;;8.98;4.03;;;9.00;82.50;;;;;;5036291;28;20339;-65
2022/11/22 02:31:49;;;;;;;10.05;4.10;;;8.90;82.40;;;;;;5033615;28;20036;-65
2022/11/22 02:34:14;;;;;;;10.82;3.90;;;8.90;82.50;;;;;;5035903;28;20033;-65
2022/11/22 02:36:48;;;;;;;10.35;3.83;;;9.00;82.60;;;;;;5035486;28;20027;-65
2022/11/22 02:39:19;;;;;;;9.35;4.30;;;9.00;82.60;;;;;;5048683;28;20030;-65
2022/11/22 02:41:45;;;;;;;10.43;4.00;;;8.90;82.60;;;;;;5047468;28;20084;-65
2022/11/22 02:44:12;;;;;;;16.25;4.90;;;9.00;83.30;;;;;;5035827;28;20040;-65
2022/11/22 02:46:50;;;;;;;10.70;3.83;;;8.90;82.60;;;;;;5036426;28;20022;-65
2022/11/22 02:49:20;;;;;;;9.57;3.90;;;9.00;82.60;;;;;;5023804;28;20025;-65
2022/11/22 02:51:46;;;;;;;9.77;4.00;;;9.00;82.70;;;;;;5035386;28;20029;-65
2022/11/22 02:54:12;;;;;;;10.73;3.50;;;8.90;82.60;;;;;;5035351;28;20026;-65
2022/11/22 02:56:38;;;;;;;8.60;3.72;;;9.00;82.80;;;;;;5050642;28;20129;-65
2022/11/22 02:59:03;;;;;;;7.68;3.53;;;8.90;82.70;;;;;;5034486;28;20079;-65
2022/11/22 03:01:29;;;;;;;12.90;4.03;;;8.90;82.70;;;;;;5035280;28;20091;-65
2022/11/22 03:03:55;;;;;;;8.90;3.78;;;9.00;82.80;;;;;;5036151;28;20022;-58
2022/11/22 03:06:20;;;;;;;8.32;3.28;;;8.90;82.70;;;;;;5036375;28;20034;-60
2022/11/22 03:08:49;;;;;;;12.50;3.50;;;9.00;82.80;;;;;;5036077;28;20089;-59
2022/11/22 03:11:14;;;;;;;6.82;2.33;;;9.00;82.80;;;;;;5035343;28;20025;-60
2022/11/22 03:13:40;;;;;;;9.27;3.03;;;9.00;82.70;;;;;;5036827;28;20025;-60
2022/11/22 03:16:06;;;;;;;9.63;3.40;;;9.00;82.60;;;;;;5036321;28;20373;-60
2022/11/22 03:18:35;;;;;;;7.50;2.65;;;9.00;82.70;;;;;;5034822;28;20050;-62
2022/11/22 03:21:04;;;;;;;11.18;2.80;;;9.00;82.70;;;;;;5014601;28;20140;-59
2022/11/22 03:23:30;;;;;;;7.82;2.75;;;8.90;82.70;;;;;;5036143;28;20335;-59
2022/11/22 03:25:56;;;;;;;9.68;3.35;;;8.90;82.60;;;;;;5035514;28;20044;-58
2022/11/22 03:28:21;;;;;;;11.10;2.67;;;8.90;82.70;;;;;;5035141;28;20072;-60
2022/11/22 03:30:47;;;;;;;14.18;3.20;;;9.00;82.70;;;;;;5035522;28;20033;-59
2022/11/22 03:33:13;;;;;;;7.95;2.83;;;9.00;82.60;;;;;;5035874;28;20033;-60
2022/11/22 03:35:38;;;;;;;9.55;2.88;;;9.00;82.60;;;;;;5034944;28;20037;-60
2022/11/22 03:38:05;;;;;;;10.00;2.60;;;8.90;82.50;;;;;;5034949;28;20026;-60
2022/11/22 03:40:32;;;;;;;9.85;3.20;;;8.90;82.60;;;;;;5035478;28;20522;-59
2022/11/22 03:43:03;;;;;;;7.32;2.70;;;8.90;82.60;;;;;;5034769;28;20419;-59
2022/11/22 03:45:29;;;;;;;10.55;2.50;;;8.90;82.60;;;;;;5032925;28;20026;-60
2022/11/22 03:47:55;;;;;;;8.93;2.55;;;8.90;82.50;;;;;;5034500;28;20037;-59
2022/11/22 03:50:22;;;;;;;8.30;2.65;;;8.90;82.50;;;;;;5035116;28;20025;-59
2022/11/22 03:52:47;;;;;;;10.77;2.97;;;8.90;82.50;;;;;;5033714;28;20486;-60
2022/11/22 03:55:13;;;;;;;10.20;2.42;;;8.90;82.40;;;;;;5034652;28;20063;-60
2022/11/22 03:57:39;;;;;;;8.10;2.60;;;8.90;82.40;;;;;;5028806;28;20483;-59
2022/11/22 04:00:05;;;;;;;12.68;2.47;;;8.80;82.40;;;;;;5034169;28;20477;-59
2022/11/22 04:02:37;;;;;;;9.25;2.30;;;8.80;82.30;;;;;;5035506;28;20406;-59
2022/11/22 04:05:03;;;;;;;13.07;3.10;;;8.90;82.30;;;;;;5040462;28;20109;-60
2022/11/22 04:07:29;;;;;;;10.27;2.97;;;8.80;82.20;;;;;;5032762;28;20025;-60
2022/11/22 04:09:54;;;;;;;11.40;2.67;;;8.80;82.20;;;;;;5035147;28;20442;-59
2022/11/22 04:12:20;;;;;;;12.27;2.40;;;8.80;82.20;;;;;;5049753;28;20377;-60
2022/11/22 04:17:46;;;;;;;11.07;2.38;;;8.80;82.10;;;;;;5034950;28;20037;-60
2022/11/22 04:23:04;;;;;;;12.25;2.72;;;8.70;82.00;;;;;;5033994;28;20021;-60
2022/11/22 04:25:31;;;;;;;11.57;2.83;;;8.70;82.00;;;;;;5049509;28;20056;-60
2022/11/22 04:27:57;;;;;;;9.98;2.75;;;8.70;82.00;;;;;;5033635;28;20586;-59
2022/11/22 04:32:44;;;;;;;9.32;2.85;;;8.70;81.90;;;;;;5033484;28;20088;-57
2022/11/22 04:33:10;;;;;;;11.45;2.40;;;8.70;81.90;;;;;;5034624;28;20100;-59
2022/11/22 04:35:36;;;;;;;8.85;2.00;;;8.70;81.90;;;;;;5035438;28;20049;-58
2022/11/22 04:38:02;;;;;;;7.95;2.00;;;8.70;81.80;;;;;;5032736;28;20410;-59
2022/11/22 04:40:28;;;;;;;11.35;2.75;;;8.70;81.80;;;;;;5035206;28;20362;-59
2022/11/22 04:45:38;;;;;;;7.78;1.85;;;8.60;81.70;;;;;;5030298;28;20395;-58
2022/11/22 04:48:04;;;;;;;9.27;2.17;;;8.60;81.70;;;;;;5033121;28;20104;-59
2022/11/22 04:53:16;;;;;;;13.13;2.35;;;8.60;81.60;;;;;;5031240;28;20030;-59
2022/11/22 04:55:44;;;;;;;7.95;2.03;;;8.60;81.60;;;;;;5029870;28;20029;-58
2022/11/22 04:58:10;;;;;;;9.45;2.70;;;8.50;81.50;;;;;;5032371;28;20037;-59
2022/11/22 05:00:35;;;;;;;9.07;2.53;;;8.50;81.50;;;;;;5031667;28;20025;-59
2022/11/22 05:03:02;;;;;;;14.13;2.90;;;8.50;81.40;;;;;;5032426;28;20110;-60
2022/11/22 05:05:28;;;;;;;9.32;2.28;;;8.50;81.40;;;;;;5047569;28;20117;-60
2022/11/22 05:07:56;;;;;;;9.95;3.15;;;8.50;81.40;;;;;;5030870;28;20104;-60
2022/11/22 05:10:22;;;;;;;9.45;2.47;;;8.50;81.30;;;;;;5032850;28;20021;-58
2022/11/22 05:12:47;;;;;;;12.05;2.40;;;8.50;81.30;;;;;;5031640;28;20473;-59
2022/11/22 05:15:13;;;;;;;8.93;2.25;;;8.50;81.20;;;;;;5033758;28;20037;-60
2022/11/22 05:17:38;;;;;;;9.13;1.92;;;8.50;81.20;;;;;;5032243;28;20040;-60
2022/11/22 05:20:06;;;;;;;8.38;2.00;;;8.50;81.20;;;;;;5033607;28;20041;-57
2022/11/22 05:25:17;;;;;;;6.38;2.05;;;8.40;81.00;;;;;;5027179;28;20029;-59
2022/11/22 05:27:43;;;;;;;9.07;2.15;;;8.40;81.00;;;;;;5030696;28;20366;-60
2022/11/22 05:30:09;;;;;;;13.30;2.00;;;8.40;81.00;;;;;;5033496;28;20033;-60
2022/11/22 05:32:35;;;;;;;8.80;2.35;;;8.40;81.00;;;;;;5030603;28;20029;-60
2022/11/22 05:35:01;;;;;;;8.85;2.75;;;8.40;80.90;;;;;;5033857;28;20079;-60
2022/11/22 05:37:27;;;;;;;11.48;2.63;;;8.40;81.00;;;;;;5036318;28;20146;-59
2022/11/22 05:39:52;;;;;;;9.93;1.88;;;8.30;80.90;;;;;;5030639;28;20067;-60
2022/11/22 05:42:18;;;;;;;7.65;2.40;;;8.30;80.90;;;;;;5030485;28;20777;-58
2022/11/22 05:44:44;;;;;;;8.73;2.42;;;8.30;80.90;;;;;;5033423;28;20175;-59
2022/11/22 05:47:10;;;;;;;7.13;2.15;;;8.30;81.00;;;;;;5030529;28;20026;-60
2022/11/22 05:49:35;;;;;;;8.73;2.15;;;8.30;80.90;;;;;;5030448;28;20021;-60
2022/11/22 05:52:02;;;;;;;9.40;2.53;;;8.30;80.90;;;;;;5033509;28;20032;-60
2022/11/22 05:54:29;;;;;;;8.30;2.15;;;8.30;80.80;;;;;;5043455;28;20032;-60
2022/11/22 05:56:54;;;;;;;11.27;2.88;;;8.30;80.80;;;;;;5031335;28;20465;-59
2022/11/22 05:59:20;;;;;;;9.48;3.17;;;8.20;80.70;;;;;;5032297;28;20116;-60
2022/11/22 06:01:45;;;;;;;11.50;2.53;;;8.20;80.70;;;;;;5036022;28;20043;-60
2022/11/22 06:04:11;;;;;;;10.55;2.58;;;8.20;80.70;;;;;;5035358;28;20025;-60
2022/11/22 06:06:37;;;;;;;9.27;1.95;;;8.20;80.60;;;;;;5034315;28;20029;-61
2022/11/22 06:09:03;;;;;;;9.55;1.90;;;8.20;80.60;;;;;;5036232;28;20065;-60
2022/11/22 06:11:29;;;;;;;10.52;2.50;;;8.20;80.60;;;;;;5036293;28;20489;-60
2022/11/22 06:14:02;;;;;;;9.80;2.50;;;8.20;80.60;;;;;;5037816;28;20065;-59
2022/11/22 06:16:28;;;;;;;13.15;2.90;;;8.10;80.40;;;;;;5036413;28;20040;-60
2022/11/22 06:18:54;;;;;;;6.40;2.22;;;8.10;80.50;;;;;;5035411;28;20041;-59
2022/11/22 06:21:24;;;;;;;9.45;2.05;;;8.10;80.50;;;;;;5036129;28;20481;-60
2022/11/22 06:23:54;;;;;;;10.38;2.22;;;8.10;80.40;;;;;;5052203;28;20045;-60
2022/11/22 06:26:21;;;;;;;9.18;2.20;;;8.10;80.40;;;;;;5035954;28;20435;-59
2022/11/22 06:28:48;;;;;;;9.10;2.20;;;8.10;80.40;;;;;;5035928;28;20446;-60
2022/11/22 06:31:19;;;;;;;11.50;2.72;;;8.10;80.40;;;;;;5036411;28;20081;-60
2022/11/22 06:33:45;;;;;;;8.00;2.35;;;8.10;80.30;;;;;;5035490;28;20043;-60
2022/11/22 06:36:11;;;;;;;7.70;2.05;;;8.10;80.20;;;;;;5037234;28;20470;-60
2022/11/22 06:38:38;;;;;;;8.32;2.53;;;8.10;80.20;;;;;;5035539;28;20051;-59
2022/11/22 06:41:12;;;;;;;6.53;2.00;;;8.10;80.20;;;;;;5036853;28;20057;-59
2022/11/22 06:43:40;;;;;;;5.28;1.95;;;8.00;80.10;;;;;;5036405;28;20438;-60
2022/11/22 06:46:07;;;;;;;7.38;1.90;;;8.00;80.10;;;;;;5035934;28;20055;-59
2022/11/22 06:48:36;;;;;;;11.73;2.03;;;8.00;80.10;;;;;;5035377;28;20033;-59
2022/11/22 06:51:08;;;;;;;9.20;2.35;;;8.00;80.10;;;;;;5034958;28;20035;-59
2022/11/22 06:53:35;;;;;;;9.88;2.42;;;8.00;80.00;;;;;;5034836;28;20091;-60
2022/11/22 06:56:11;;;;;;;8.98;2.28;;;7.90;80.00;;;;;;5036646;28;20430;-60
2022/11/22 06:58:37;;;;;;;11.37;2.20;;;7.90;80.00;;;;;;5035109;28;20037;-60
2022/11/22 07:01:14;;;;;;;13.70;2.58;;;7.90;80.70;;;;;;5033017;28;20037;-60
2022/11/22 07:03:41;;;;;;;10.45;2.30;;;8.00;80.10;;;;;;5034100;28;20033;-61
2022/11/22 07:06:08;;;;;;;14.20;2.88;;;8.00;80.00;;;;;;5035922;28;20021;-60
2022/11/22 07:08:35;;;;;;;9.85;2.33;;;8.00;79.90;;;;;;5036636;28;20107;-60
2022/11/22 07:11:14;;;;;;;15.55;2.80;;;8.10;79.70;;;;;;5043092;28;20080;-61
2022/11/22 07:13:40;;;;;;;10.73;2.33;;;8.10;79.70;;;;;;5036151;28;20034;-61
2022/11/22 07:16:07;;;;;;;9.35;2.88;;;8.00;79.70;;;;;;5034976;28;20423;-60
2022/11/22 07:18:33;;;;;;;14.48;3.75;;;8.00;79.70;;;;;;5035103;28;20045;-60
2022/11/22 07:21:11;;;;;;;10.13;2.30;;;8.00;79.70;;;;;;5034061;28;20112;-60
2022/11/22 07:23:38;;;;;;;14.40;2.20;;;7.90;80.20;;;;;;5030461;28;20032;-59
2022/11/22 07:26:03;;;;;;;8.65;2.58;;;7.90;79.70;;;;;;5029057;28;20034;-61
2022/11/22 07:28:29;;;;;;;11.85;2.95;;;7.90;79.60;;;;;;5017006;28;20421;-60
2022/11/22 07:31:03;;;;;;;8.65;2.47;;;7.90;79.60;;;;;;5034220;28;20039;-58
2022/11/22 07:33:30;;;;;;;9.07;2.45;;;7.90;79.60;;;;;;5031632;28;20334;-61
2022/11/22 07:36:01;;;;;;;10.95;2.85;;;7.90;79.60;;;;;;5033049;28;20472;-60
2022/11/22 07:38:27;;;;;;;7.57;2.20;;;7.90;79.60;;;;;;5032821;28;20045;-60
2022/11/22 07:40:52;;;;;;;10.00;2.58;;;7.90;79.60;;;;;;5018051;28;20091;-60
2022/11/22 07:43:18;;;;;;;7.70;2.30;;;7.90;79.50;;;;;;5033942;28;20060;-60
2022/11/22 07:45:44;;;;;;;7.82;2.40;;;7.90;79.50;;;;;;5035191;28;20053;-60
2022/11/22 07:48:13;;;;;;;10.55;3.15;;;7.90;79.50;;;;;;5034996;28;20025;-60
2022/11/22 07:50:39;;;;;;;11.02;3.17;;;7.90;79.50;;;;;;5032589;28;20095;-60
2022/11/22 07:53:05;;;;;;;10.80;3.42;;;7.90;79.40;;;;;;5034937;28;20036;-60
2022/11/22 07:55:30;;;;;;;11.20;3.10;;;7.90;79.30;;;;;;5032448;28;20070;-57
2022/11/22 07:57:59;;;;;;;11.10;2.60;;;7.90;79.30;;;;;;5034083;28;20062;-61
2022/11/22 08:00:26;;;;;;;8.18;2.40;;;7.90;79.30;;;;;;5033073;28;20398;-59
2022/11/22 08:02:51;;;;;;;9.25;2.55;;;7.90;79.30;;;;;;5034882;28;20033;-60
2022/11/22 08:05:17;;;;;;;9.45;2.65;;;7.90;79.30;;;;;;5032081;28;20029;-60
2022/11/22 08:07:48;;;;;;;6.38;2.35;;;7.90;79.30;;;;;;5031144;28;20033;-60
2022/11/22 08:10:14;;;;;;;8.02;2.30;;;7.90;79.30;;;;;;5033572;28;20026;-60
2022/11/22 08:12:39;;;;;;;7.68;2.22;;;8.00;79.40;;;;;;5034575;28;20464;-60
2022/11/22 08:15:06;;;;;;;8.02;2.55;;;7.90;79.30;;;;;;5032727;28;20033;-60
2022/11/22 08:17:32;;;;;;;6.85;2.35;;;8.00;79.30;;;;;;5031960;28;20155;-59
2022/11/22 08:19:57;;;;;;;10.00;2.60;;;8.00;79.30;;;;;;5030893;28;20128;-60
2022/11/22 08:22:23;;;;;;;8.90;2.55;;;8.00;79.30;;;;;;5031734;28;20033;-61
2022/11/22 08:24:48;;;;;;;11.07;2.92;;;8.00;79.20;;;;;;5032372;28;20088;-61
2022/11/22 08:27:14;;;;;;;9.45;2.38;;;8.00;79.20;;;;;;5032416;28;20025;-60
2022/11/22 08:29:40;;;;;;;6.85;1.83;;;8.00;79.10;;;;;;5032039;28;20045;-60
2022/11/22 08:32:06;;;;;;;9.60;2.63;;;8.10;79.20;;;;;;5023317;28;20055;-60
2022/11/22 08:34:31;;;;;;;10.77;2.70;;;8.10;79.10;;;;;;5032635;28;20014;-60
2022/11/22 08:36:57;;;;;;;8.80;2.58;;;8.10;79.10;;;;;;5033514;28;20458;-60
2022/11/22 08:39:23;;;;;;;8.73;2.33;;;8.10;79.00;;;;;;5034727;28;20064;-60
2022/11/22 08:41:48;;;;;;;10.00;2.42;;;8.10;79.00;;;;;;5016033;28;20481;-60
2022/11/22 08:44:14;;;;;;;9.95;3.00;;;8.10;78.90;;;;;;5031088;28;20037;-60
2022/11/22 08:46:39;;;;;;;6.80;2.30;;;8.20;79.00;;;;;;5033394;28;20030;-59
2022/11/22 08:49:06;;;;;;;9.18;2.45;;;8.10;78.90;;;;;;5031624;28;20037;-59
2022/11/22 08:51:33;;;;;;;8.25;2.17;;;8.20;79.00;;;;;;5031710;28;20319;-60
2022/11/22 08:53:59;;;;;;;6.65;2.33;;;8.20;79.00;;;;;;5032932;28;20117;-59
2022/11/22 08:56:24;;;;;;;11.02;2.80;;;8.20;79.00;;;;;;5028476;28;20136;-59
2022/11/22 08:58:50;;;;;;;9.70;2.28;;;8.20;78.90;;;;;;5033486;28;20021;-59
2022/11/22 09:01:17;;;;;;;8.05;2.30;;;8.20;78.80;;;;;;5032292;28;20029;-61
2022/11/22 09:03:44;;;;;;;11.68;2.88;;;8.20;78.70;;;;;;5033379;28;20033;-60
2022/11/22 09:06:12;;;;;;;8.52;2.35;;;8.30;78.70;;;;;;5031635;28;20033;-60
2022/11/22 09:08:38;;;;;;;8.95;2.55;;;8.30;78.60;;;;;;5033836;28;20120;-60
2022/11/22 09:11:09;;;;;;;9.05;2.47;;;8.30;78.40;;;;;;5014824;28;20030;-60
2022/11/22 09:13:35;;;;;;;7.32;2.45;;;8.40;78.30;;;;;;5033342;28;20029;-60
2022/11/22 09:16:10;;;;;;;9.23;2.55;;;8.40;78.30;;;;;;5034858;28;20385;-60
2022/11/22 09:18:36;;;;;;;8.63;1.88;;;8.40;78.20;;;;;;5023704;28;20488;-60
2022/11/22 09:21:14;;;;;;;10.32;2.42;;;8.40;78.20;;;;;;5032041;28;20437;-61
2022/11/22 09:23:42;;;;;;;7.22;1.85;;;8.40;78.10;;;;;;5040356;28;20037;-60
2022/11/22 09:26:11;;;;;;;8.32;1.98;;;8.50;78.10;;;;;;5029159;28;20021;-61
2022/11/22 09:28:37;;;;;;;5.75;1.92;;;8.50;78.10;;;;;;5032490;28;20044;-60
2022/11/22 09:31:11;;;;;;;7.32;2.15;;;8.50;78.10;;;;;;5032156;28;20037;-60
2022/11/22 09:33:39;;;;;;;10.15;2.70;;;8.50;78.00;;;;;;5033642;28;20171;-61
2022/11/22 09:36:11;;;;;;;6.40;2.10;;;8.50;78.00;;;;;;5034206;28;20119;-59
2022/11/22 09:38:36;;;;;;;;;;;8.60;77.90;;;;;;5038974;28;20029;-61
2022/11/22 09:41:15;;;;;;;6.80;2.38;;;8.60;77.90;;;;;;5038218;28;19909;-60
2022/11/22 09:44:18;;;;;;;8.75;2.63;;;8.50;77.90;;;;;;5037965;28;20028;-60
2022/11/22 09:47:14;;;;;;;6.43;2.38;;;8.60;77.90;;;;;;5038179;28;20030;-58
2022/11/22 09:50:09;;;;;;;9.48;2.20;;;8.60;77.80;;;;;;5038022;28;20094;-59
2022/11/22 09:52:45;;;;;;;8.65;2.30;;;8.60;77.80;;;;;;5038248;28;20087;-60
2022/11/22 09:55:17;;;;;;;9.80;1.98;;;8.50;77.80;;;;;;5037408;28;20052;-60
2022/11/22 09:57:51;;;;;;;7.97;2.42;;;8.60;77.80;;;;;;5037283;28;20056;-60
2022/11/22 10:00:24;;;;;;;9.05;2.05;;;8.60;77.80;;;;;;5036443;28;20034;-60
2022/11/22 10:03:21;;;;;;;7.13;1.92;;;8.70;77.80;;;;;;5037802;28;20075;-60
2022/11/22 10:05:52;;;;;;;7.85;2.22;;;8.70;77.60;;;;;;5045639;28;20022;-57
2022/11/22 10:08:52;;;;;;;6.18;1.80;;;8.80;77.50;;;;;;5036054;28;20040;-58
2022/11/22 10:11:25;;;;;;;7.38;1.95;;;8.80;77.30;;;;;;5037746;28;20414;-60
2022/11/22 10:13:58;;;;;;;8.60;2.47;;;8.90;77.30;;;;;;5036907;28;20107;-60
2022/11/22 10:16:41;;;;;;;8.68;2.40;;;8.90;77.20;;;;;;5035589;28;20037;-60
2022/11/22 10:19:19;;;;;;;9.38;2.83;;;8.90;77.20;;;;;;5035642;28;20147;-60
2022/11/22 10:21:47;;;;;;;9.35;2.30;;;8.90;77.10;;;;;;5025204;28;20373;-60
2022/11/22 10:24:15;;;;;;;9.13;2.65;;;9.00;77.10;;;;;;5036329;28;20352;-60
2022/11/22 10:26:42;;;;;;;8.43;1.92;;;9.00;77.00;;;;;;5037241;28;20026;-58
2022/11/22 10:29:17;;;;;;;9.13;2.25;;;9.00;77.00;;;;;;5052753;28;20068;-59
2022/11/22 10:31:42;;;;;;;10.63;2.15;;;9.00;76.90;;;;;;5036435;28;20029;-59
2022/11/22 10:34:16;;;;;;;10.25;2.50;;;9.00;76.90;;;;;;5037192;28;20037;-60
2022/11/22 10:37:08;;;;;;;8.23;2.10;;;9.00;76.90;;;;;;5036576;28;20105;-59
2022/11/22 10:39:51;;;;;;;5.80;1.90;;;9.10;76.90;;;;;;5036047;28;20099;-60
2022/11/22 10:42:25;;;;;;;9.32;2.35;;;9.10;76.80;;;;;;5052668;28;20040;-60
2022/11/22 10:45:09;;;;;;;4.45;1.80;;;9.10;76.70;;;;;;5035522;28;20475;-59
2022/11/22 10:47:37;;;;;;;6.03;2.40;;;9.20;76.60;;;;;;5036338;28;20075;-60
2022/11/22 10:50:15;;;;;;;5.93;1.98;;;9.20;76.50;;;;;;5036781;28;20037;-60
2022/11/22 10:53:00;;;;;;;7.35;1.80;;;9.20;76.40;;;;;;5035323;28;20079;-60
2022/11/22 10:55:39;;;;;;;6.82;1.90;;;9.20;76.30;;;;;;5035978;28;20045;-60
2022/11/22 10:58:24;;;;;;;4.93;1.92;;;9.20;76.50;;;;;;5036807;28;20057;-60
2022/11/22 11:01:16;;;;;;;9.95;2.33;;;9.20;76.40;;;;;;5035993;28;20506;-60
2022/11/22 11:03:45;;;;;;;11.38;1.95;;;9.20;76.30;;;;;;5018693;28;20481;-58
2022/11/22 11:06:24;;;;;;;4.90;1.45;;;9.20;76.30;;;;;;5036896;28;20476;-58
2022/11/22 11:09:17;;;;;;;7.07;1.95;;;9.30;76.10;;;;;;5036585;28;20128;-60
2022/11/22 11:11:45;;;;;;;5.90;1.95;;;9.20;76.10;;;;;;5028247;28;20045;-60
2022/11/22 11:14:35;;;;;;;7.25;2.13;;;9.30;76.10;;;;;;5037824;28;20060;-59
2022/11/22 11:17:02;;;;;;;5.63;1.90;;;9.30;76.10;;;;;;5034036;28;20445;-60
2022/11/22 11:19:36;;;;;;;7.10;1.50;;;9.20;76.00;;;;;;5017813;28;20489;-59
2022/11/22 11:22:08;;;;;;;5.13;1.60;;;9.20;76.00;;;;;;5034747;28;20339;-59
2022/11/22 11:24:37;;;;;;;6.80;1.98;;;9.30;76.00;;;;;;5033326;28;20343;-60
2022/11/22 11:27:03;;;;;;;5.18;2.00;;;9.30;76.00;;;;;;5034723;28;20116;-60
2022/11/22 11:29:52;;;;;;;6.75;2.13;;;9.30;75.90;;;;;;5034070;28;20025;-60
2022/11/22 11:32:19;;;;;;;5.35;1.67;;;9.30;75.90;;;;;;5034083;28;20029;-60
2022/11/22 11:34:56;;;;;;;8.48;2.22;;;9.30;75.90;;;;;;5029590;28;20080;-59
2022/11/22 11:37:25;;;;;;;4.60;1.50;;;9.30;75.90;;;;;;5024557;28;20026;-60
2022/11/22 11:39:51;;;;;;;4.38;1.50;;;9.30;75.90;;;;;;5020837;28;20143;-60
2022/11/22 11:42:21;;;;;;;3.47;1.20;;;9.30;75.80;;;;;;5040718;28;20048;-60
2022/11/22 11:44:47;;;;;;;4.57;1.52;;;9.40;75.80;;;;;;5023425;28;20025;-59
2022/11/22 11:47:19;;;;;;;8.40;1.67;;;9.40;75.60;;;;;;5051135;28;20034;-60
2022/11/22 11:49:51;;;;;;;4.40;1.45;;;9.40;75.60;;;;;;5032885;28;20033;-64
2022/11/22 11:52:24;;;;;;;;;;;9.40;75.50;;;;;;5051073;28;20025;-61
2022/11/22 11:54:57;;;;;;;4.10;1.65;;;9.40;75.60;;;;;;5050553;28;20342;-61
2022/11/22 11:57:36;;;;;;;4.07;1.88;;;9.40;75.40;;;;;;5017540;28;20030;-60
2022/11/22 12:00:05;;;;;;;4.10;2.00;;;9.40;75.30;;;;;;5029451;28;20449;-60
2022/11/22 12:02:40;;;;;;;5.82;1.98;;;9.50;75.90;;;;;;5035364;28;20167;-60
2022/11/22 12:05:12;;;;;;;9.48;2.20;;;9.60;75.20;;;;;;5021743;28;20026;-59
2022/11/22 12:07:43;;;;;;;5.18;1.80;;;9.60;75.10;;;;;;5017390;28;20362;-61
2022/11/22 12:10:56;;;;;;;6.07;1.67;;;9.70;74.90;;;;;;5034568;28;20026;-61
2022/11/22 12:13:42;;;;;;;4.00;1.67;;;9.70;74.70;;;;;;5032815;28;20103;-61
2022/11/22 12:16:30;;;;;;;1.95;0.98;;;9.80;74.60;;;;;;5035356;28;20021;-60
2022/11/22 12:19:14;;;;;;;3.83;1.05;;;9.80;74.50;;;;;;5032254;28;20053;-60
2022/11/22 12:21:45;;;;;;;2.63;1.20;;;9.80;74.40;;;;;;5049844;28;20041;-60
2022/11/22 12:24:20;;;;;;;5.53;1.40;;;9.80;74.40;;;;;;5015605;28;20037;-59
2022/11/22 12:26:46;;;;;;;3.97;1.20;;;9.90;74.30;;;;;;5033087;28;20025;-60
2022/11/22 12:29:13;;;;;;;3.30;1.00;;;9.80;74.20;;;;;;5033891;28;20119;-60
2022/11/22 12:31:51;;;;;;;3.78;1.30;;;9.90;74.20;;;;;;5034733;28;20035;-60
2022/11/22 12:34:32;;;;;;;4.53;1.30;;;9.90;74.10;;;;;;5032813;28;20036;-60
2022/11/22 12:37:07;;;;;;;5.63;1.70;;;9.90;74.10;;;;;;5035014;28;20034;-59
2022/11/22 12:39:35;;;;;;;7.30;2.15;;;9.90;74.10;;;;;;5049614;28;20122;-60
2022/11/22 12:42:17;;;;;;;6.72;1.90;;;9.80;74.00;;;;;;5030839;28;20029;-60
2022/11/22 12:45:04;;;;;;;;;;;9.90;74.00;;;;;;5022061;28;20036;-60
2022/11/22 12:47:39;;;;;;;3.85;1.35;;;9.80;74.20;;;;;;5031419;28;19909;-61
2022/11/22 12:50:14;;;;;;;3.15;1.20;;;9.80;74.20;;;;;;5033432;28;20040;-61
2022/11/22 12:52:57;;;;;;;3.60;1.20;;;9.70;74.20;;;;;;5034835;28;20346;-58
2022/11/22 12:55:26;;;;;;;3.58;1.30;;;9.70;74.10;;;;;;5032682;28;20030;-60
2022/11/22 12:58:10;;;;;;;2.30;0.90;;;9.70;74.20;;;;;;5034516;28;20029;-61
2022/11/22 13:00:43;;;;;;;3.90;1.15;;;9.80;74.10;;;;;;5049865;28;20033;-61
2022/11/22 13:03:18;;;;;;;2.35;1.02;;;9.80;74.00;;;;;;5031173;28;20032;-60
2022/11/22 13:05:55;;;;;;;3.03;1.05;;;9.70;73.90;;;;;;5016703;28;20053;-60
2022/11/22 13:08:39;;;;;;;4.47;1.25;;;9.70;73.90;;;;;;5034351;28;20116;-60
2022/11/22 13:11:18;;;;;;;3.08;1.10;;;9.70;73.90;;;;;;5049002;28;20037;-61
2022/11/22 13:13:48;;;;;;;5.80;1.75;;;9.70;73.90;;;;;;5032935;28;20120;-60
2022/11/22 13:16:14;;;;;;;4.43;1.60;;;9.70;73.80;;;;;;5032825;28;20033;-60
2022/11/22 13:18:45;;;;;;;5.53;1.30;;;9.70;73.80;;;;;;5027539;28;20045;-61
2022/11/22 13:21:19;;;;;;;2.43;0.97;;;9.80;73.70;;;;;;5031887;28;20043;-60
2022/11/22 13:24:01;;;;;;;5.05;1.50;;;9.70;73.50;;;;;;5034602;28;20418;-61